sensor_id;sensor_type;location;lat;lon;timestamp;pressure;altitude;pressure_sealevel;temperature;humidity
82171;BME280;71755;48.038;14.346;2023-08-17T00:00:42;97552.03;;;18.84;72.37
82171;BME280;71755;48.038;14.346;2023-08-17T00:03:08;97546.19;;;18.58;73.18
82171;BME280;71755;48.038;14.346;2023-08-17T00:05:34;97548.69;;;18.22;75.24
82171;BME280;71755;48.038;14.346;2023-08-17T00:08:01;97548.97;;;17.83;76.95
82171;BME280;71755;48.038;14.346;2023-08-17T00:10:28;97546.34;;;17.54;77.73
82171;BME280;71755;48.038;14.346;2023-08-17T00:12:54;97546.00;;;17.36;78.71
82171;BME280;71755;48.038;14.346;2023-08-17T00:15:20;97550.84;;;17.39;78.96
82171;BME280;71755;48.038;14.346;2023-08-17T00:17:46;97544.03;;;17.66;78.25
82171;BME280;71755;48.038;14.346;2023-08-17T00:20:13;97540.44;;;17.52;78.64
82171;BME280;71755;48.038;14.346;2023-08-17T00:22:39;97536.81;;;17.37;78.73
82171;BME280;71755;48.038;14.346;2023-08-17T00:25:05;97540.59;;;17.36;79.50
82171;BME280;71755;48.038;14.346;2023-08-17T00:27:32;97545.44;;;17.39;79.24
82171;BME280;71755;48.038;14.346;2023-08-17T00:29:59;97545.78;;;17.33;79.67
82171;BME280;71755;48.038;14.346;2023-08-17T00:32:24;97534.28;;;17.46;79.23
82171;BME280;71755;48.038;14.346;2023-08-17T00:34:50;97541.41;;;17.37;79.15
82171;BME280;71755;48.038;14.346;2023-08-17T00:37:16;97537.81;;;17.23;80.13
82171;BME280;71755;48.038;14.346;2023-08-17T00:39:42;97540.03;;;17.39;79.21
82171;BME280;71755;48.038;14.346;2023-08-17T00:42:09;97537.25;;;17.44;78.96
82171;BME280;71755;48.038;14.346;2023-08-17T00:44:35;97533.38;;;17.56;78.43
82171;BME280;71755;48.038;14.346;2023-08-17T00:47:01;97527.75;;;17.52;78.56
82171;BME280;71755;48.038;14.346;2023-08-17T00:49:28;97525.91;;;17.47;78.80
82171;BME280;71755;48.038;14.346;2023-08-17T00:51:54;97537.66;;;17.14;79.84
82171;BME280;71755;48.038;14.346;2023-08-17T00:54:24;97523.78;;;16.97;80.54
82171;BME280;71755;48.038;14.346;2023-08-17T00:56:52;97514.94;;;16.91;80.61
82171;BME280;71755;48.038;14.346;2023-08-17T00:59:20;97522.13;;;17.01;80.14
82171;BME280;71755;48.038;14.346;2023-08-17T01:01:47;97516.72;;;17.01;80.40
82171;BME280;71755;48.038;14.346;2023-08-17T01:04:14;97512.25;;;16.91;81.06
82171;BME280;71755;48.038;14.346;2023-08-17T01:06:40;97521.13;;;16.92;80.64
82171;BME280;71755;48.038;14.346;2023-08-17T01:09:07;97521.75;;;17.07;80.05
82171;BME280;71755;48.038;14.346;2023-08-17T01:11:47;97506.28;;;16.94;80.41
82171;BME280;71755;48.038;14.346;2023-08-17T01:14:25;97514.03;;;17.01;80.33
82171;BME280;71755;48.038;14.346;2023-08-17T01:17:17;97519.00;;;17.36;79.23
82171;BME280;71755;48.038;14.346;2023-08-17T01:19:44;97512.34;;;17.53;78.31
82171;BME280;71755;48.038;14.346;2023-08-17T01:22:14;97521.63;;;17.41;78.22
82171;BME280;71755;48.038;14.346;2023-08-17T01:24:41;97517.91;;;17.61;77.68
82171;BME280;71755;48.038;14.346;2023-08-17T01:27:07;97518.00;;;17.75;77.19
82171;BME280;71755;48.038;14.346;2023-08-17T01:29:34;97517.59;;;17.87;76.73
82171;BME280;71755;48.038;14.346;2023-08-17T01:32:20;97525.03;;;17.95;76.04
82171;BME280;71755;48.038;14.346;2023-08-17T01:34:54;97531.66;;;18.02;75.45
82171;BME280;71755;48.038;14.346;2023-08-17T01:37:25;97531.50;;;18.12;75.08
82171;BME280;71755;48.038;14.346;2023-08-17T01:39:56;97532.84;;;17.96;75.58
82171;BME280;71755;48.038;14.346;2023-08-17T01:42:24;97536.91;;;18.12;75.07
82171;BME280;71755;48.038;14.346;2023-08-17T01:44:51;97536.91;;;18.12;75.00
82171;BME280;71755;48.038;14.346;2023-08-17T01:47:23;97542.47;;;18.02;74.54
82171;BME280;71755;48.038;14.346;2023-08-17T01:49:50;97530.59;;;17.85;75.26
82171;BME280;71755;48.038;14.346;2023-08-17T01:52:16;97527.59;;;17.62;75.59
82171;BME280;71755;48.038;14.346;2023-08-17T01:54:42;97522.50;;;17.61;75.26
82171;BME280;71755;48.038;14.346;2023-08-17T01:57:08;97532.69;;;17.69;75.06
82171;BME280;71755;48.038;14.346;2023-08-17T01:59:34;97542.97;;;17.67;74.89
82171;BME280;71755;48.038;14.346;2023-08-17T02:02:00;97544.50;;;17.73;74.55
82171;BME280;71755;48.038;14.346;2023-08-17T02:04:26;97539.16;;;17.68;74.97
82171;BME280;71755;48.038;14.346;2023-08-17T02:06:52;97538.91;;;17.64;75.57
82171;BME280;71755;48.038;14.346;2023-08-17T02:09:18;97543.53;;;17.64;75.37
82171;BME280;71755;48.038;14.346;2023-08-17T02:11:44;97540.81;;;17.64;75.68
82171;BME280;71755;48.038;14.346;2023-08-17T02:14:09;97547.97;;;17.55;75.28
82171;BME280;71755;48.038;14.346;2023-08-17T02:16:36;97546.06;;;17.31;76.41
82171;BME280;71755;48.038;14.346;2023-08-17T02:19:02;97550.84;;;17.39;76.23
82171;BME280;71755;48.038;14.346;2023-08-17T02:21:29;97557.78;;;17.45;76.13
82171;BME280;71755;48.038;14.346;2023-08-17T02:23:54;97567.03;;;17.63;75.58
82171;BME280;71755;48.038;14.346;2023-08-17T02:26:21;97563.00;;;17.61;75.91
82171;BME280;71755;48.038;14.346;2023-08-17T02:28:47;97567.38;;;17.80;74.96
82171;BME280;71755;48.038;14.346;2023-08-17T02:31:14;97565.72;;;17.85;75.03
82171;BME280;71755;48.038;14.346;2023-08-17T02:33:41;97571.81;;;17.71;75.46
82171;BME280;71755;48.038;14.346;2023-08-17T02:36:07;97567.28;;;17.67;75.59
82171;BME280;71755;48.038;14.346;2023-08-17T02:38:33;97563.94;;;17.27;76.40
82171;BME280;71755;48.038;14.346;2023-08-17T02:40:59;97561.41;;;17.36;75.75
82171;BME280;71755;48.038;14.346;2023-08-17T02:43:25;97556.28;;;17.34;75.45
82171;BME280;71755;48.038;14.346;2023-08-17T02:45:51;97549.50;;;17.37;75.53
82171;BME280;71755;48.038;14.346;2023-08-17T02:48:19;97548.66;;;17.41;75.71
82171;BME280;71755;48.038;14.346;2023-08-17T02:50:45;97553.25;;;17.41;75.70
82171;BME280;71755;48.038;14.346;2023-08-17T02:53:12;97554.63;;;17.38;75.52
82171;BME280;71755;48.038;14.346;2023-08-17T02:55:37;97552.34;;;17.27;75.59
82171;BME280;71755;48.038;14.346;2023-08-17T02:58:03;97536.94;;;17.27;76.19
82171;BME280;71755;48.038;14.346;2023-08-17T03:00:30;97534.63;;;17.39;75.96
82171;BME280;71755;48.038;14.346;2023-08-17T03:02:56;97530.06;;;17.16;76.79
82171;BME280;71755;48.038;14.346;2023-08-17T03:05:22;97524.59;;;17.21;76.31
82171;BME280;71755;48.038;14.346;2023-08-17T03:07:48;97523.66;;;17.31;75.67
82171;BME280;71755;48.038;14.346;2023-08-17T03:10:14;97529.34;;;17.29;75.59
82171;BME280;71755;48.038;14.346;2023-08-17T03:12:43;97523.72;;;17.26;75.48
82171;BME280;71755;48.038;14.346;2023-08-17T03:15:10;97515.84;;;17.29;75.50
82171;BME280;71755;48.038;14.346;2023-08-17T03:17:37;97519.00;;;17.36;75.49
82171;BME280;71755;48.038;14.346;2023-08-17T03:20:03;97524.19;;;17.33;75.58
82171;BME280;71755;48.038;14.346;2023-08-17T03:22:33;97530.25;;;17.43;75.17
82171;BME280;71755;48.038;14.346;2023-08-17T03:25:00;97525.44;;;17.40;75.07
82171;BME280;71755;48.038;14.346;2023-08-17T03:27:25;97520.97;;;17.31;75.38
82171;BME280;71755;48.038;14.346;2023-08-17T03:29:52;97521.63;;;17.23;75.62
82171;BME280;71755;48.038;14.346;2023-08-17T03:32:18;97520.16;;;17.30;75.13
82171;BME280;71755;48.038;14.346;2023-08-17T03:34:44;97522.94;;;17.25;75.73
82171;BME280;71755;48.038;14.346;2023-08-17T03:37:10;97529.84;;;17.12;76.41
82171;BME280;71755;48.038;14.346;2023-08-17T03:39:36;97522.63;;;16.45;76.91
82171;BME280;71755;48.038;14.346;2023-08-17T03:42:01;97534.13;;;16.21;79.02
82171;BME280;71755;48.038;14.346;2023-08-17T03:44:27;97527.59;;;16.27;78.67
82171;BME280;71755;48.038;14.346;2023-08-17T03:46:59;97537.50;;;16.42;77.91
82171;BME280;71755;48.038;14.346;2023-08-17T03:49:27;97542.56;;;16.49;77.64
82171;BME280;71755;48.038;14.346;2023-08-17T03:52:14;97539.09;;;16.43;78.26
82171;BME280;71755;48.038;14.346;2023-08-17T03:55:08;97532.44;;;16.31;78.63
82171;BME280;71755;48.038;14.346;2023-08-17T04:00:13;97545.88;;;15.42;82.76
82171;BME280;71755;48.038;14.346;2023-08-17T04:02:42;97555.03;;;15.36;83.80
82171;BME280;71755;48.038;14.346;2023-08-17T04:05:09;97541.81;;;15.45;83.85
82171;BME280;71755;48.038;14.346;2023-08-17T04:07:36;97553.28;;;15.76;83.24
82171;BME280;71755;48.038;14.346;2023-08-17T04:10:03;97544.59;;;15.89;82.37
82171;BME280;71755;48.038;14.346;2023-08-17T04:12:31;97545.09;;;15.91;82.49
82171;BME280;71755;48.038;14.346;2023-08-17T04:14:57;97545.78;;;16.12;81.55
82171;BME280;71755;48.038;14.346;2023-08-17T04:17:23;97554.25;;;16.34;80.72
82171;BME280;71755;48.038;14.346;2023-08-17T04:19:49;97547.38;;;16.52;79.80
82171;BME280;71755;48.038;14.346;2023-08-17T04:22:15;97544.09;;;16.55;79.66
82171;BME280;71755;48.038;14.346;2023-08-17T04:24:41;97540.56;;;16.60;79.21
82171;BME280;71755;48.038;14.346;2023-08-17T04:27:07;97551.81;;;16.38;79.77
82171;BME280;71755;48.038;14.346;2023-08-17T04:29:33;97555.59;;;16.37;80.18
82171;BME280;71755;48.038;14.346;2023-08-17T04:31:59;97551.00;;;16.71;80.61
82171;BME280;71755;48.038;14.346;2023-08-17T04:34:25;97556.97;;;16.97;79.85
82171;BME280;71755;48.038;14.346;2023-08-17T04:36:51;97552.81;;;17.10;78.53
82171;BME280;71755;48.038;14.346;2023-08-17T04:39:17;97567.00;;;16.92;78.57
82171;BME280;71755;48.038;14.346;2023-08-17T04:41:44;97561.03;;;16.95;77.93
82171;BME280;71755;48.038;14.346;2023-08-17T04:44:11;97568.63;;;16.93;78.03
82171;BME280;71755;48.038;14.346;2023-08-17T04:46:37;97582.09;;;16.58;78.61
82171;BME280;71755;48.038;14.346;2023-08-17T04:49:04;97571.59;;;16.57;79.23
82171;BME280;71755;48.038;14.346;2023-08-17T04:51:31;97569.88;;;16.76;78.80
82171;BME280;71755;48.038;14.346;2023-08-17T04:53:57;97570.19;;;16.99;78.67
82171;BME280;71755;48.038;14.346;2023-08-17T04:56:23;97576.94;;;16.96;78.12
82171;BME280;71755;48.038;14.346;2023-08-17T04:58:48;97572.69;;;16.56;79.67
82171;BME280;71755;48.038;14.346;2023-08-17T05:01:14;97571.25;;;16.30;81.35
82171;BME280;71755;48.038;14.346;2023-08-17T05:03:40;97572.72;;;16.17;82.47
82171;BME280;71755;48.038;14.346;2023-08-17T05:06:06;97577.22;;;16.26;82.46
82171;BME280;71755;48.038;14.346;2023-08-17T05:08:32;97577.56;;;16.54;81.61
82171;BME280;71755;48.038;14.346;2023-08-17T05:10:57;97585.53;;;16.69;80.09
82171;BME280;71755;48.038;14.346;2023-08-17T05:13:24;97581.34;;;16.53;80.27
82171;BME280;71755;48.038;14.346;2023-08-17T05:15:50;97581.66;;;16.46;80.64
82171;BME280;71755;48.038;14.346;2023-08-17T05:18:16;97585.81;;;16.68;80.82
82171;BME280;71755;48.038;14.346;2023-08-17T05:20:42;97571.13;;;16.84;80.22
82171;BME280;71755;48.038;14.346;2023-08-17T05:23:08;97579.34;;;16.98;79.85
82171;BME280;71755;48.038;14.346;2023-08-17T05:25:34;97568.44;;;17.08;79.32
82171;BME280;71755;48.038;14.346;2023-08-17T05:28:00;97569.22;;;17.13;79.78
82171;BME280;71755;48.038;14.346;2023-08-17T05:30:29;97585.09;;;17.20;80.00
82171;BME280;71755;48.038;14.346;2023-08-17T05:32:56;97577.09;;;17.34;79.20
82171;BME280;71755;48.038;14.346;2023-08-17T05:35:22;97579.72;;;17.39;79.20
82171;BME280;71755;48.038;14.346;2023-08-17T05:37:49;97579.97;;;17.42;78.30
82171;BME280;71755;48.038;14.346;2023-08-17T05:40:16;97577.66;;;17.31;78.51
82171;BME280;71755;48.038;14.346;2023-08-17T05:42:43;97583.34;;;17.29;78.61
82171;BME280;71755;48.038;14.346;2023-08-17T05:45:10;97582.22;;;17.35;78.26
82171;BME280;71755;48.038;14.346;2023-08-17T05:47:36;97584.28;;;17.43;78.26
82171;BME280;71755;48.038;14.346;2023-08-17T05:50:03;97588.03;;;17.47;78.55
82171;BME280;71755;48.038;14.346;2023-08-17T05:52:31;97587.97;;;17.53;78.75
82171;BME280;71755;48.038;14.346;2023-08-17T05:54:57;97582.72;;;17.61;79.01
82171;BME280;71755;48.038;14.346;2023-08-17T05:57:23;97582.66;;;17.66;78.47
82171;BME280;71755;48.038;14.346;2023-08-17T05:59:50;97584.22;;;17.72;78.04
82171;BME280;71755;48.038;14.346;2023-08-17T06:02:17;97590.06;;;17.79;77.53
82171;BME280;71755;48.038;14.346;2023-08-17T06:04:43;97587.56;;;17.88;77.01
82171;BME280;71755;48.038;14.346;2023-08-17T06:07:09;97594.50;;;17.94;77.36
82171;BME280;71755;48.038;14.346;2023-08-17T06:09:35;97595.53;;;17.98;76.63
82171;BME280;71755;48.038;14.346;2023-08-17T06:12:01;97595.38;;;18.08;76.22
82171;BME280;71755;48.038;14.346;2023-08-17T06:14:27;97592.00;;;18.17;75.95
82171;BME280;71755;48.038;14.346;2023-08-17T06:16:52;97593.28;;;18.24;75.66
82171;BME280;71755;48.038;14.346;2023-08-17T06:19:18;97587.00;;;18.29;76.53
82171;BME280;71755;48.038;14.346;2023-08-17T06:21:44;97580.63;;;18.38;76.31
82171;BME280;71755;48.038;14.346;2023-08-17T06:24:10;97581.34;;;18.44;75.55
82171;BME280;71755;48.038;14.346;2023-08-17T06:26:37;97584.75;;;18.50;76.38
82171;BME280;71755;48.038;14.346;2023-08-17T06:29:03;97579.25;;;18.55;76.42
82171;BME280;71755;48.038;14.346;2023-08-17T06:31:30;97578.41;;;18.59;75.81
82171;BME280;71755;48.038;14.346;2023-08-17T06:33:57;97580.25;;;18.64;75.11
82171;BME280;71755;48.038;14.346;2023-08-17T06:36:23;97568.53;;;18.68;75.29
82171;BME280;71755;48.038;14.346;2023-08-17T06:38:49;97573.97;;;18.82;75.04
82171;BME280;71755;48.038;14.346;2023-08-17T06:41:16;97575.41;;;18.93;74.16
82171;BME280;71755;48.038;14.346;2023-08-17T06:43:43;97584.16;;;19.04;73.90
82171;BME280;71755;48.038;14.346;2023-08-17T06:46:09;97583.66;;;19.16;73.40
82171;BME280;71755;48.038;14.346;2023-08-17T06:48:38;97574.84;;;19.24;72.60
82171;BME280;71755;48.038;14.346;2023-08-17T06:51:05;97576.59;;;19.33;72.38
82171;BME280;71755;48.038;14.346;2023-08-17T06:53:31;97585.81;;;19.46;71.78
82171;BME280;71755;48.038;14.346;2023-08-17T06:55:57;97579.41;;;19.56;71.70
82171;BME280;71755;48.038;14.346;2023-08-17T06:58:23;97586.53;;;19.65;71.60
82171;BME280;71755;48.038;14.346;2023-08-17T07:00:48;97584.81;;;19.70;70.53
82171;BME280;71755;48.038;14.346;2023-08-17T07:03:14;97572.69;;;19.81;70.44
82171;BME280;71755;48.038;14.346;2023-08-17T07:05:42;97574.34;;;19.90;70.35
82171;BME280;71755;48.038;14.346;2023-08-17T07:08:08;97581.78;;;19.98;70.54
82171;BME280;71755;48.038;14.346;2023-08-17T07:10:34;97575.94;;;20.05;69.68
82171;BME280;71755;48.038;14.346;2023-08-17T07:13:00;97575.53;;;20.12;69.77
82171;BME280;71755;48.038;14.346;2023-08-17T07:15:30;97579.41;;;20.19;69.81
82171;BME280;71755;48.038;14.346;2023-08-17T07:17:56;97583.19;;;20.32;69.86
82171;BME280;71755;48.038;14.346;2023-08-17T07:20:22;97579.25;;;20.38;69.89
82171;BME280;71755;48.038;14.346;2023-08-17T07:22:48;97584.53;;;20.21;69.14
82171;BME280;71755;48.038;14.346;2023-08-17T07:25:14;97595.84;;;20.37;69.82
82171;BME280;71755;48.038;14.346;2023-08-17T07:27:43;97588.09;;;20.44;70.42
82171;BME280;71755;48.038;14.346;2023-08-17T07:30:10;97591.28;;;20.59;69.22
82171;BME280;71755;48.038;14.346;2023-08-17T07:32:36;97594.84;;;20.69;69.60
82171;BME280;71755;48.038;14.346;2023-08-17T07:35:02;97583.72;;;20.79;68.52
82171;BME280;71755;48.038;14.346;2023-08-17T07:37:29;97590.69;;;20.94;69.02
82171;BME280;71755;48.038;14.346;2023-08-17T07:39:59;97587.19;;;20.93;67.53
82171;BME280;71755;48.038;14.346;2023-08-17T07:42:25;97590.63;;;21.07;67.18
82171;BME280;71755;48.038;14.346;2023-08-17T07:44:51;97594.06;;;21.21;67.93
82171;BME280;71755;48.038;14.346;2023-08-17T07:47:17;97598.75;;;21.30;66.92
82171;BME280;71755;48.038;14.346;2023-08-17T07:49:43;97588.44;;;21.49;67.63
82171;BME280;71755;48.038;14.346;2023-08-17T07:52:09;97591.63;;;21.51;67.57
82171;BME280;71755;48.038;14.346;2023-08-17T07:54:37;97588.34;;;21.63;67.24
82171;BME280;71755;48.038;14.346;2023-08-17T07:57:03;97588.38;;;21.71;67.08
82171;BME280;71755;48.038;14.346;2023-08-17T07:59:29;97589.31;;;21.75;67.40
82171;BME280;71755;48.038;14.346;2023-08-17T08:01:55;97583.13;;;21.92;66.96
82171;BME280;71755;48.038;14.346;2023-08-17T08:04:21;97587.94;;;21.95;65.85
82171;BME280;71755;48.038;14.346;2023-08-17T08:06:49;97588.78;;;22.04;67.00
82171;BME280;71755;48.038;14.346;2023-08-17T08:09:15;97577.91;;;22.13;64.57
82171;BME280;71755;48.038;14.346;2023-08-17T08:11:41;97574.22;;;22.18;66.47
82171;BME280;71755;48.038;14.346;2023-08-17T08:14:07;97577.94;;;22.30;65.05
82171;BME280;71755;48.038;14.346;2023-08-17T08:16:34;97568.31;;;22.41;65.11
82171;BME280;71755;48.038;14.346;2023-08-17T08:19:01;97565.09;;;22.57;65.54
82171;BME280;71755;48.038;14.346;2023-08-17T08:21:28;97560.16;;;22.67;64.56
82171;BME280;71755;48.038;14.346;2023-08-17T08:23:54;97563.50;;;22.73;62.72
82171;BME280;71755;48.038;14.346;2023-08-17T08:26:20;97569.56;;;22.87;63.66
82171;BME280;71755;48.038;14.346;2023-08-17T08:28:45;97565.84;;;23.09;63.33
82171;BME280;71755;48.038;14.346;2023-08-17T08:31:11;97561.66;;;23.03;62.00
82171;BME280;71755;48.038;14.346;2023-08-17T08:33:37;97563.88;;;23.18;63.54
82171;BME280;71755;48.038;14.346;2023-08-17T08:36:03;97556.53;;;23.10;62.94
82171;BME280;71755;48.038;14.346;2023-08-17T08:38:31;97557.88;;;23.42;62.00
82171;BME280;71755;48.038;14.346;2023-08-17T08:40:58;97560.41;;;23.47;61.59
82171;BME280;71755;48.038;14.346;2023-08-17T08:43:25;97559.81;;;23.33;61.77
82171;BME280;71755;48.038;14.346;2023-08-17T08:45:51;97552.91;;;23.74;61.56
82171;BME280;71755;48.038;14.346;2023-08-17T08:48:18;97546.00;;;23.76;61.19
82171;BME280;71755;48.038;14.346;2023-08-17T08:50:46;97549.25;;;23.69;62.99
82171;BME280;71755;48.038;14.346;2023-08-17T08:53:18;97547.91;;;23.76;61.29
82171;BME280;71755;48.038;14.346;2023-08-17T08:55:55;97550.41;;;23.89;61.91
82171;BME280;71755;48.038;14.346;2023-08-17T08:58:21;97561.34;;;24.10;60.73
82171;BME280;71755;48.038;14.346;2023-08-17T09:00:47;97549.00;;;24.34;61.35
82171;BME280;71755;48.038;14.346;2023-08-17T09:03:15;97561.44;;;24.22;62.90
82171;BME280;71755;48.038;14.346;2023-08-17T09:05:48;97552.97;;;24.57;58.14
82171;BME280;71755;48.038;14.346;2023-08-17T09:08:20;97545.25;;;24.59;59.12
82171;BME280;71755;48.038;14.346;2023-08-17T09:10:46;97562.81;;;24.70;59.90
82171;BME280;71755;48.038;14.346;2023-08-17T09:13:14;97552.44;;;24.97;58.64
82171;BME280;71755;48.038;14.346;2023-08-17T09:15:40;97545.75;;;25.18;56.90
82171;BME280;71755;48.038;14.346;2023-08-17T09:18:07;97542.09;;;25.14;58.32
82171;BME280;71755;48.038;14.346;2023-08-17T09:20:40;97541.56;;;25.33;58.46
82171;BME280;71755;48.038;14.346;2023-08-17T09:23:12;97534.97;;;25.46;56.88
82171;BME280;71755;48.038;14.346;2023-08-17T09:25:44;97529.47;;;25.59;58.09
82171;BME280;71755;48.038;14.346;2023-08-17T09:28:18;97527.09;;;25.45;56.52
82171;BME280;71755;48.038;14.346;2023-08-17T09:30:56;97525.19;;;25.70;57.18
82171;BME280;71755;48.038;14.346;2023-08-17T09:33:34;97532.66;;;25.24;57.42
82171;BME280;71755;48.038;14.346;2023-08-17T09:36:01;97526.31;;;25.44;56.60
82171;BME280;71755;48.038;14.346;2023-08-17T09:38:27;97532.47;;;25.41;54.27
82171;BME280;71755;48.038;14.346;2023-08-17T09:40:57;97531.31;;;25.30;55.54
82171;BME280;71755;48.038;14.346;2023-08-17T09:43:25;97532.94;;;25.68;55.90
82171;BME280;71755;48.038;14.346;2023-08-17T09:45:55;97523.78;;;25.51;55.20
82171;BME280;71755;48.038;14.346;2023-08-17T09:48:21;97520.28;;;25.75;56.66
82171;BME280;71755;48.038;14.346;2023-08-17T09:50:47;97515.03;;;25.82;55.01
82171;BME280;71755;48.038;14.346;2023-08-17T09:53:15;97516.72;;;25.87;55.65
82171;BME280;71755;48.038;14.346;2023-08-17T09:55:42;97511.13;;;25.83;56.20
82171;BME280;71755;48.038;14.346;2023-08-17T09:58:09;97509.56;;;25.70;57.02
82171;BME280;71755;48.038;14.346;2023-08-17T10:00:48;97508.47;;;26.11;53.34
82171;BME280;71755;48.038;14.346;2023-08-17T10:03:15;97497.22;;;26.41;54.87
82171;BME280;71755;48.038;14.346;2023-08-17T10:05:59;97496.59;;;26.07;52.35
82171;BME280;71755;48.038;14.346;2023-08-17T10:08:27;97501.53;;;26.42;54.76
82171;BME280;71755;48.038;14.346;2023-08-17T10:10:56;97491.88;;;26.76;52.16
82171;BME280;71755;48.038;14.346;2023-08-17T10:13:59;97495.34;;;26.89;54.94
82171;BME280;71755;48.038;14.346;2023-08-17T10:16:24;97490.19;;;27.15;54.31
82171;BME280;71755;48.038;14.346;2023-08-17T10:21:56;97487.38;;;26.84;54.92
82171;BME280;71755;48.038;14.346;2023-08-17T10:24:26;97483.59;;;26.88;52.36
82171;BME280;71755;48.038;14.346;2023-08-17T10:26:53;97481.75;;;27.08;53.31
82171;BME280;71755;48.038;14.346;2023-08-17T10:29:22;97477.66;;;27.49;51.84
82171;BME280;71755;48.038;14.346;2023-08-17T10:31:49;97482.44;;;27.52;52.84
82171;BME280;71755;48.038;14.346;2023-08-17T10:34:15;97479.41;;;27.73;49.32
82171;BME280;71755;48.038;14.346;2023-08-17T10:36:42;97482.13;;;27.89;49.21
82171;BME280;71755;48.038;14.346;2023-08-17T10:39:22;97479.28;;;27.85;50.34
82171;BME280;71755;48.038;14.346;2023-08-17T10:41:50;97478.91;;;27.87;49.91
82171;BME280;71755;48.038;14.346;2023-08-17T10:44:54;97482.00;;;27.66;48.09
82171;BME280;71755;48.038;14.346;2023-08-17T10:47:32;97483.09;;;27.30;51.50
82171;BME280;71755;48.038;14.346;2023-08-17T10:49:59;97485.47;;;27.63;50.25
82171;BME280;71755;48.038;14.346;2023-08-17T10:52:30;97482.59;;;27.75;51.13
82171;BME280;71755;48.038;14.346;2023-08-17T10:55:00;97473.53;;;27.90;47.29
82171;BME280;71755;48.038;14.346;2023-08-17T10:57:38;97475.53;;;28.28;49.91
82171;BME280;71755;48.038;14.346;2023-08-17T11:05:53;97472.19;;;28.39;47.85
82171;BME280;71755;48.038;14.346;2023-08-17T11:08:38;97473.31;;;28.18;50.12
82171;BME280;71755;48.038;14.346;2023-08-17T11:11:15;97469.47;;;28.61;48.11
82171;BME280;71755;48.038;14.346;2023-08-17T11:13:45;97464.66;;;28.78;46.70
82171;BME280;71755;48.038;14.346;2023-08-17T11:16:16;97463.34;;;28.91;45.96
82171;BME280;71755;48.038;14.346;2023-08-17T11:18:47;97462.50;;;28.87;44.49
82171;BME280;71755;48.038;14.346;2023-08-17T11:21:13;97458.38;;;28.77;45.75
82171;BME280;71755;48.038;14.346;2023-08-17T11:23:42;97461.84;;;28.74;44.46
82171;BME280;71755;48.038;14.346;2023-08-17T11:26:09;97456.41;;;28.78;48.16
82171;BME280;71755;48.038;14.346;2023-08-17T11:28:35;97451.06;;;28.85;45.76
82171;BME280;71755;48.038;14.346;2023-08-17T11:31:09;97456.47;;;29.01;46.56
82171;BME280;71755;48.038;14.346;2023-08-17T11:33:37;97450.91;;;29.23;45.48
82171;BME280;71755;48.038;14.346;2023-08-17T11:36:05;97449.97;;;29.12;48.02
82171;BME280;71755;48.038;14.346;2023-08-17T11:38:33;97449.34;;;29.22;47.30
82171;BME280;71755;48.038;14.346;2023-08-17T11:41:00;97443.09;;;29.25;49.65
82171;BME280;71755;48.038;14.346;2023-08-17T11:43:30;97449.91;;;29.58;45.65
82171;BME280;71755;48.038;14.346;2023-08-17T11:45:57;97450.56;;;29.48;47.89
82171;BME280;71755;48.038;14.346;2023-08-17T11:48:24;97458.06;;;29.28;45.10
82171;BME280;71755;48.038;14.346;2023-08-17T11:50:52;97448.31;;;29.57;46.54
82171;BME280;71755;48.038;14.346;2023-08-17T11:53:19;97452.06;;;29.72;46.25
82171;BME280;71755;48.038;14.346;2023-08-17T11:55:45;97454.13;;;29.78;46.87
82171;BME280;71755;48.038;14.346;2023-08-17T11:58:10;97452.44;;;29.70;43.90
82171;BME280;71755;48.038;14.346;2023-08-17T12:00:39;97449.59;;;29.93;41.38
82171;BME280;71755;48.038;14.346;2023-08-17T12:03:06;97443.50;;;30.07;42.89
82171;BME280;71755;48.038;14.346;2023-08-17T12:05:33;97443.34;;;29.96;43.33
82171;BME280;71755;48.038;14.346;2023-08-17T12:08:00;97445.94;;;30.12;44.18
82171;BME280;71755;48.038;14.346;2023-08-17T12:10:33;97447.22;;;30.22;44.63
82171;BME280;71755;48.038;14.346;2023-08-17T12:13:01;97441.16;;;30.09;44.17
82171;BME280;71755;48.038;14.346;2023-08-17T12:15:36;97444.88;;;30.24;43.54
82171;BME280;71755;48.038;14.346;2023-08-17T12:18:04;97434.25;;;30.22;44.35
82171;BME280;71755;48.038;14.346;2023-08-17T12:20:32;97430.22;;;30.49;44.17
82171;BME280;71755;48.038;14.346;2023-08-17T12:23:02;97432.31;;;30.60;40.80
82171;BME280;71755;48.038;14.346;2023-08-17T12:25:28;97424.03;;;30.60;42.25
82171;BME280;71755;48.038;14.346;2023-08-17T12:27:58;97420.44;;;30.56;39.67
82171;BME280;71755;48.038;14.346;2023-08-17T12:30:34;97421.78;;;30.72;42.17
82171;BME280;71755;48.038;14.346;2023-08-17T12:33:02;97416.28;;;30.72;40.44
82171;BME280;71755;48.038;14.346;2023-08-17T12:35:28;97418.00;;;30.88;41.88
82171;BME280;71755;48.038;14.346;2023-08-17T12:37:54;97407.22;;;30.72;40.88
82171;BME280;71755;48.038;14.346;2023-08-17T12:40:21;97404.91;;;30.81;43.92
82171;BME280;71755;48.038;14.346;2023-08-17T12:42:48;97401.41;;;30.84;41.26
82171;BME280;71755;48.038;14.346;2023-08-17T12:45:15;97399.53;;;30.92;42.24
82171;BME280;71755;48.038;14.346;2023-08-17T12:47:41;97392.94;;;31.07;40.57
82171;BME280;71755;48.038;14.346;2023-08-17T12:50:08;97396.88;;;31.09;38.45
82171;BME280;71755;48.038;14.346;2023-08-17T12:52:35;97400.59;;;30.84;40.22
82171;BME280;71755;48.038;14.346;2023-08-17T12:55:01;97392.44;;;30.94;40.51
82171;BME280;71755;48.038;14.346;2023-08-17T12:57:27;97394.00;;;30.92;40.07
82171;BME280;71755;48.038;14.346;2023-08-17T12:59:54;97387.38;;;31.03;41.37
82171;BME280;71755;48.038;14.346;2023-08-17T13:02:21;97380.63;;;30.97;45.26
82171;BME280;71755;48.038;14.346;2023-08-17T13:04:47;97378.44;;;31.21;42.80